sensor_id;sensor_type;location;lat;lon;timestamp;P1;durP1;ratioP1;P2;durP2;ratioP2
75165;SDS011;63747;48.042;10.088;2022-10-29T00:02:12;11.80;;;3.60;;
75165;SDS011;63747;48.042;10.088;2022-10-29T00:05:12;15.68;;;4.10;;
75165;SDS011;63747;48.042;10.088;2022-10-29T00:08:13;12.45;;;3.60;;
75165;SDS011;63747;48.042;10.088;2022-10-29T00:11:18;9.90;;;3.80;;
75165;SDS011;63747;48.042;10.088;2022-10-29T00:14:20;8.05;;;3.55;;
75165;SDS011;63747;48.042;10.088;2022-10-29T00:17:21;8.77;;;3.70;;
75165;SDS011;63747;48.042;10.088;2022-10-29T00:20:21;10.83;;;3.90;;
75165;SDS011;63747;48.042;10.088;2022-10-29T00:23:22;8.82;;;3.50;;
75165;SDS011;63747;48.042;10.088;2022-10-29T00:26:23;12.77;;;3.33;;
75165;SDS011;63747;48.042;10.088;2022-10-29T00:29:24;13.02;;;3.97;;
75165;SDS011;63747;48.042;10.088;2022-10-29T00:32:25;12.33;;;3.90;;
75165;SDS011;63747;48.042;10.088;2022-10-29T00:35:26;10.57;;;4.90;;
75165;SDS011;63747;48.042;10.088;2022-10-29T00:38:27;7.07;;;3.37;;
75165;SDS011;63747;48.042;10.088;2022-10-29T00:41:28;12.05;;;3.78;;
75165;SDS011;63747;48.042;10.088;2022-10-29T00:44:35;8.52;;;3.55;;
75165;SDS011;63747;48.042;10.088;2022-10-29T00:47:37;12.25;;;3.40;;
75165;SDS011;63747;48.042;10.088;2022-10-29T00:50:39;8.85;;;3.80;;
75165;SDS011;63747;48.042;10.088;2022-10-29T00:53:44;9.13;;;4.33;;
75165;SDS011;63747;48.042;10.088;2022-10-29T00:56:55;10.45;;;3.88;;
75165;SDS011;63747;48.042;10.088;2022-10-29T00:59:59;11.43;;;3.60;;
75165;SDS011;63747;48.042;10.088;2022-10-29T01:03:01;10.68;;;3.88;;
75165;SDS011;63747;48.042;10.088;2022-10-29T01:06:01;6.87;;;2.97;;
75165;SDS011;63747;48.042;10.088;2022-10-29T01:09:03;9.05;;;3.30;;
75165;SDS011;63747;48.042;10.088;2022-10-29T01:15:15;8.85;;;3.10;;
75165;SDS011;63747;48.042;10.088;2022-10-29T01:18:36;10.20;;;3.60;;
75165;SDS011;63747;48.042;10.088;2022-10-29T01:21:52;10.13;;;3.33;;
75165;SDS011;63747;48.042;10.088;2022-10-29T01:35:03;8.03;;;3.40;;
75165;SDS011;63747;48.042;10.088;2022-10-29T01:38:10;9.50;;;3.80;;
75165;SDS011;63747;48.042;10.088;2022-10-29T01:41:28;11.77;;;3.70;;
75165;SDS011;63747;48.042;10.088;2022-10-29T01:44:56;11.73;;;3.38;;
75165;SDS011;63747;48.042;10.088;2022-10-29T01:48:08;13.95;;;3.40;;
75165;SDS011;63747;48.042;10.088;2022-10-29T01:51:16;7.40;;;3.10;;
75165;SDS011;63747;48.042;10.088;2022-10-29T01:54:21;9.10;;;3.47;;
75165;SDS011;63747;48.042;10.088;2022-10-29T01:57:26;13.20;;;3.70;;
75165;SDS011;63747;48.042;10.088;2022-10-29T02:00:28;11.85;;;3.53;;
75165;SDS011;63747;48.042;10.088;2022-10-29T02:17:07;15.63;;;3.50;;
75165;SDS011;63747;48.042;10.088;2022-10-29T02:20:08;12.20;;;3.92;;
75165;SDS011;63747;48.042;10.088;2022-10-29T02:23:11;11.18;;;3.67;;
75165;SDS011;63747;48.042;10.088;2022-10-29T02:29:13;15.60;;;3.60;;
75165;SDS011;63747;48.042;10.088;2022-10-29T02:32:13;12.27;;;3.70;;
75165;SDS011;63747;48.042;10.088;2022-10-29T02:35:14;9.52;;;3.30;;
75165;SDS011;63747;48.042;10.088;2022-10-29T02:38:15;14.98;;;4.03;;
75165;SDS011;63747;48.042;10.088;2022-10-29T02:41:16;9.10;;;3.27;;
75165;SDS011;63747;48.042;10.088;2022-10-29T02:44:16;10.13;;;3.42;;
75165;SDS011;63747;48.042;10.088;2022-10-29T02:47:17;12.07;;;3.57;;
75165;SDS011;63747;48.042;10.088;2022-10-29T02:50:18;17.50;;;3.83;;
75165;SDS011;63747;48.042;10.088;2022-10-29T02:53:19;14.93;;;4.20;;
75165;SDS011;63747;48.042;10.088;2022-10-29T02:56:20;17.17;;;3.97;;
75165;SDS011;63747;48.042;10.088;2022-10-29T02:59:21;9.90;;;3.65;;
75165;SDS011;63747;48.042;10.088;2022-10-29T03:02:22;10.73;;;3.97;;
75165;SDS011;63747;48.042;10.088;2022-10-29T03:05:23;13.43;;;3.90;;
75165;SDS011;63747;48.042;10.088;2022-10-29T03:08:23;12.53;;;3.93;;
75165;SDS011;63747;48.042;10.088;2022-10-29T03:11:24;13.60;;;3.67;;
75165;SDS011;63747;48.042;10.088;2022-10-29T03:14:25;9.87;;;3.80;;
75165;SDS011;63747;48.042;10.088;2022-10-29T03:17:26;11.03;;;4.17;;
75165;SDS011;63747;48.042;10.088;2022-10-29T03:20:27;11.27;;;3.90;;
75165;SDS011;63747;48.042;10.088;2022-10-29T03:23:27;12.37;;;3.63;;
75165;SDS011;63747;48.042;10.088;2022-10-29T03:26:29;9.05;;;3.67;;
75165;SDS011;63747;48.042;10.088;2022-10-29T03:29:30;10.65;;;3.35;;
75165;SDS011;63747;48.042;10.088;2022-10-29T03:32:30;13.93;;;3.47;;
75165;SDS011;63747;48.042;10.088;2022-10-29T03:35:32;12.02;;;3.38;;
75165;SDS011;63747;48.042;10.088;2022-10-29T03:38:35;11.38;;;3.40;;
75165;SDS011;63747;48.042;10.088;2022-10-29T03:45:03;12.25;;;2.95;;
75165;SDS011;63747;48.042;10.088;2022-10-29T03:48:04;7.90;;;3.00;;
75165;SDS011;63747;48.042;10.088;2022-10-29T03:51:19;13.63;;;3.08;;
75165;SDS011;63747;48.042;10.088;2022-10-29T03:54:20;16.25;;;3.72;;
75165;SDS011;63747;48.042;10.088;2022-10-29T03:57:21;11.32;;;3.05;;
75165;SDS011;63747;48.042;10.088;2022-10-29T04:00:22;10.13;;;3.40;;
75165;SDS011;63747;48.042;10.088;2022-10-29T04:03:24;10.95;;;3.45;;
75165;SDS011;63747;48.042;10.088;2022-10-29T04:06:26;13.32;;;4.25;;
75165;SDS011;63747;48.042;10.088;2022-10-29T04:09:30;17.77;;;4.88;;
75165;SDS011;63747;48.042;10.088;2022-10-29T04:12:30;14.20;;;4.70;;
75165;SDS011;63747;48.042;10.088;2022-10-29T04:15:32;8.60;;;3.47;;
75165;SDS011;63747;48.042;10.088;2022-10-29T04:18:33;11.43;;;3.80;;
75165;SDS011;63747;48.042;10.088;2022-10-29T04:21:34;11.18;;;3.63;;
75165;SDS011;63747;48.042;10.088;2022-10-29T04:24:35;8.45;;;3.15;;
75165;SDS011;63747;48.042;10.088;2022-10-29T04:27:36;11.77;;;3.50;;
75165;SDS011;63747;48.042;10.088;2022-10-29T04:30:37;9.40;;;3.00;;
75165;SDS011;63747;48.042;10.088;2022-10-29T04:33:41;9.50;;;3.60;;
75165;SDS011;63747;48.042;10.088;2022-10-29T04:36:42;14.13;;;3.47;;
75165;SDS011;63747;48.042;10.088;2022-10-29T04:39:43;18.42;;;3.60;;
75165;SDS011;63747;48.042;10.088;2022-10-29T04:42:46;11.15;;;3.50;;
75165;SDS011;63747;48.042;10.088;2022-10-29T04:45:54;13.73;;;3.80;;
75165;SDS011;63747;48.042;10.088;2022-10-29T04:52:06;12.47;;;3.50;;
75165;SDS011;63747;48.042;10.088;2022-10-29T04:55:10;11.02;;;3.75;;
75165;SDS011;63747;48.042;10.088;2022-10-29T04:58:15;11.40;;;3.50;;
75165;SDS011;63747;48.042;10.088;2022-10-29T05:01:18;14.70;;;3.85;;
75165;SDS011;63747;48.042;10.088;2022-10-29T05:04:19;13.25;;;4.25;;
75165;SDS011;63747;48.042;10.088;2022-10-29T05:07:28;14.05;;;3.92;;
75165;SDS011;63747;48.042;10.088;2022-10-29T05:10:30;12.15;;;3.78;;
75165;SDS011;63747;48.042;10.088;2022-10-29T05:13:36;15.15;;;3.80;;
75165;SDS011;63747;48.042;10.088;2022-10-29T05:16:37;12.70;;;3.97;;
75165;SDS011;63747;48.042;10.088;2022-10-29T05:19:38;14.52;;;3.83;;
75165;SDS011;63747;48.042;10.088;2022-10-29T05:22:41;15.57;;;3.90;;
75165;SDS011;63747;48.042;10.088;2022-10-29T05:25:41;16.25;;;3.75;;
75165;SDS011;63747;48.042;10.088;2022-10-29T05:28:42;10.25;;;3.35;;
75165;SDS011;63747;48.042;10.088;2022-10-29T05:31:43;16.70;;;4.07;;
75165;SDS011;63747;48.042;10.088;2022-10-29T05:34:44;14.15;;;4.20;;
75165;SDS011;63747;48.042;10.088;2022-10-29T05:37:54;8.68;;;4.15;;
75165;SDS011;63747;48.042;10.088;2022-10-29T05:40:56;15.20;;;3.75;;
75165;SDS011;63747;48.042;10.088;2022-10-29T05:43:58;10.88;;;4.40;;
75165;SDS011;63747;48.042;10.088;2022-10-29T05:46:59;11.75;;;4.03;;
75165;SDS011;63747;48.042;10.088;2022-10-29T05:50:00;14.98;;;4.03;;
75165;SDS011;63747;48.042;10.088;2022-10-29T05:53:01;13.33;;;4.53;;
75165;SDS011;63747;48.042;10.088;2022-10-29T05:56:06;15.88;;;6.20;;
75165;SDS011;63747;48.042;10.088;2022-10-29T05:59:07;14.35;;;4.22;;
75165;SDS011;63747;48.042;10.088;2022-10-29T06:02:08;15.73;;;5.43;;
75165;SDS011;63747;48.042;10.088;2022-10-29T06:08:10;12.07;;;4.53;;
75165;SDS011;63747;48.042;10.088;2022-10-29T06:11:11;10.88;;;4.63;;
75165;SDS011;63747;48.042;10.088;2022-10-29T06:14:12;11.32;;;3.40;;
75165;SDS011;63747;48.042;10.088;2022-10-29T06:17:13;14.40;;;4.00;;
75165;SDS011;63747;48.042;10.088;2022-10-29T06:20:15;13.43;;;4.30;;
75165;SDS011;63747;48.042;10.088;2022-10-29T06:23:17;14.30;;;4.55;;
75165;SDS011;63747;48.042;10.088;2022-10-29T06:26:17;14.13;;;3.67;;
75165;SDS011;63747;48.042;10.088;2022-10-29T06:29:18;9.77;;;3.43;;
75165;SDS011;63747;48.042;10.088;2022-10-29T06:32:19;14.43;;;4.00;;
75165;SDS011;63747;48.042;10.088;2022-10-29T06:35:19;17.13;;;3.93;;
75165;SDS011;63747;48.042;10.088;2022-10-29T06:38:20;16.70;;;4.55;;
75165;SDS011;63747;48.042;10.088;2022-10-29T06:41:21;16.60;;;3.83;;
75165;SDS011;63747;48.042;10.088;2022-10-29T06:44:25;10.32;;;3.70;;
75165;SDS011;63747;48.042;10.088;2022-10-29T06:47:26;11.17;;;3.30;;
75165;SDS011;63747;48.042;10.088;2022-10-29T06:50:26;18.13;;;3.90;;
75165;SDS011;63747;48.042;10.088;2022-10-29T06:53:27;17.52;;;3.67;;
75165;SDS011;63747;48.042;10.088;2022-10-29T06:56:28;14.80;;;3.83;;
75165;SDS011;63747;48.042;10.088;2022-10-29T06:59:29;13.18;;;3.85;;
75165;SDS011;63747;48.042;10.088;2022-10-29T07:02:30;14.37;;;4.57;;
75165;SDS011;63747;48.042;10.088;2022-10-29T07:05:31;10.97;;;4.07;;
75165;SDS011;63747;48.042;10.088;2022-10-29T07:08:32;14.80;;;5.32;;
75165;SDS011;63747;48.042;10.088;2022-10-29T07:11:33;16.70;;;6.78;;
75165;SDS011;63747;48.042;10.088;2022-10-29T07:14:34;13.23;;;5.00;;
75165;SDS011;63747;48.042;10.088;2022-10-29T07:17:34;15.65;;;5.00;;
75165;SDS011;63747;48.042;10.088;2022-10-29T07:20:38;16.33;;;4.27;;
75165;SDS011;63747;48.042;10.088;2022-10-29T07:23:41;13.23;;;3.80;;
75165;SDS011;63747;48.042;10.088;2022-10-29T07:26:41;12.43;;;3.83;;
75165;SDS011;63747;48.042;10.088;2022-10-29T07:29:42;16.63;;;4.57;;
75165;SDS011;63747;48.042;10.088;2022-10-29T07:32:43;17.53;;;4.57;;
75165;SDS011;63747;48.042;10.088;2022-10-29T07:35:44;16.33;;;4.20;;
75165;SDS011;63747;48.042;10.088;2022-10-29T07:38:45;12.65;;;3.90;;
75165;SDS011;63747;48.042;10.088;2022-10-29T07:41:46;14.77;;;4.00;;
75165;SDS011;63747;48.042;10.088;2022-10-29T07:44:47;12.67;;;3.87;;
75165;SDS011;63747;48.042;10.088;2022-10-29T07:47:47;16.00;;;3.90;;
75165;SDS011;63747;48.042;10.088;2022-10-29T07:50:48;16.20;;;3.83;;
75165;SDS011;63747;48.042;10.088;2022-10-29T07:53:49;19.70;;;3.90;;
75165;SDS011;63747;48.042;10.088;2022-10-29T07:56:50;16.90;;;3.77;;
75165;SDS011;63747;48.042;10.088;2022-10-29T07:59:52;12.38;;;3.83;;
75165;SDS011;63747;48.042;10.088;2022-10-29T08:02:53;12.57;;;3.70;;
75165;SDS011;63747;48.042;10.088;2022-10-29T08:05:57;16.45;;;4.43;;
75165;SDS011;63747;48.042;10.088;2022-10-29T08:08:58;18.35;;;4.95;;
75165;SDS011;63747;48.042;10.088;2022-10-29T08:12:01;12.52;;;3.72;;
75165;SDS011;63747;48.042;10.088;2022-10-29T08:15:04;14.38;;;3.70;;
75165;SDS011;63747;48.042;10.088;2022-10-29T08:18:09;15.48;;;3.80;;
75165;SDS011;63747;48.042;10.088;2022-10-29T08:21:13;11.93;;;3.60;;
75165;SDS011;63747;48.042;10.088;2022-10-29T08:24:14;12.65;;;3.67;;
75165;SDS011;63747;48.042;10.088;2022-10-29T08:27:15;20.40;;;4.18;;
75165;SDS011;63747;48.042;10.088;2022-10-29T08:30:16;16.10;;;3.75;;
75165;SDS011;63747;48.042;10.088;2022-10-29T08:33:16;13.63;;;3.47;;
75165;SDS011;63747;48.042;10.088;2022-10-29T08:36:18;14.25;;;4.07;;
75165;SDS011;63747;48.042;10.088;2022-10-29T08:39:19;14.52;;;3.90;;
75165;SDS011;63747;48.042;10.088;2022-10-29T08:45:47;10.68;;;3.22;;
75165;SDS011;63747;48.042;10.088;2022-10-29T08:48:55;14.05;;;3.55;;
75165;SDS011;63747;48.042;10.088;2022-10-29T08:52:02;29.95;;;4.90;;
75165;SDS011;63747;48.042;10.088;2022-10-29T08:58:26;15.82;;;4.10;;
75165;SDS011;63747;48.042;10.088;2022-10-29T09:01:32;11.85;;;3.55;;
75165;SDS011;63747;48.042;10.088;2022-10-29T09:04:35;11.13;;;3.28;;
75165;SDS011;63747;48.042;10.088;2022-10-29T09:10:57;9.35;;;3.03;;
75165;SDS011;63747;48.042;10.088;2022-10-29T09:17:30;18.33;;;4.00;;
75165;SDS011;63747;48.042;10.088;2022-10-29T09:20:45;15.45;;;3.50;;
75165;SDS011;63747;48.042;10.088;2022-10-29T09:27:28;14.95;;;3.67;;
75165;SDS011;63747;48.042;10.088;2022-10-29T09:30:30;13.52;;;3.25;;
75165;SDS011;63747;48.042;10.088;2022-10-29T09:33:43;16.25;;;3.70;;
75165;SDS011;63747;48.042;10.088;2022-10-29T09:36:46;14.20;;;4.35;;
75165;SDS011;63747;48.042;10.088;2022-10-29T09:39:47;23.73;;;5.85;;
75165;SDS011;63747;48.042;10.088;2022-10-29T09:42:48;18.08;;;3.92;;
75165;SDS011;63747;48.042;10.088;2022-10-29T09:51:57;21.10;;;6.55;;
75165;SDS011;63747;48.042;10.088;2022-10-29T09:55:03;36.05;;;6.50;;
75165;SDS011;63747;48.042;10.088;2022-10-29T09:58:05;19.27;;;4.07;;
75165;SDS011;63747;48.042;10.088;2022-10-29T10:01:07;14.18;;;3.42;;
75165;SDS011;63747;48.042;10.088;2022-10-29T10:11:11;26.88;;;9.30;;
75165;SDS011;63747;48.042;10.088;2022-10-29T10:14:19;17.98;;;4.82;;
75165;SDS011;63747;48.042;10.088;2022-10-29T10:17:21;47.88;;;19.55;;
75165;SDS011;63747;48.042;10.088;2022-10-29T10:23:29;13.75;;;3.90;;
75165;SDS011;63747;48.042;10.088;2022-10-29T10:26:40;54.25;;;11.43;;
75165;SDS011;63747;48.042;10.088;2022-10-29T10:29:42;57.30;;;18.50;;
75165;SDS011;63747;48.042;10.088;2022-10-29T10:32:44;36.90;;;6.32;;
75165;SDS011;63747;48.042;10.088;2022-10-29T10:35:45;18.50;;;3.75;;
75165;SDS011;63747;48.042;10.088;2022-10-29T10:41:48;25.60;;;4.03;;
75165;SDS011;63747;48.042;10.088;2022-10-29T10:44:56;95.35;;;9.30;;
75165;SDS011;63747;48.042;10.088;2022-10-29T10:47:59;16.08;;;3.47;;
75165;SDS011;63747;48.042;10.088;2022-10-29T11:01:27;39.88;;;8.68;;
75165;SDS011;63747;48.042;10.088;2022-10-29T11:04:34;14.32;;;3.40;;
75165;SDS011;63747;48.042;10.088;2022-10-29T11:07:38;13.63;;;3.13;;
75165;SDS011;63747;48.042;10.088;2022-10-29T11:10:43;11.65;;;3.50;;
75165;SDS011;63747;48.042;10.088;2022-10-29T11:13:49;12.95;;;3.30;;
75165;SDS011;63747;48.042;10.088;2022-10-29T11:16:52;14.13;;;3.80;;
75165;SDS011;63747;48.042;10.088;2022-10-29T11:20:01;16.63;;;3.78;;
75165;SDS011;63747;48.042;10.088;2022-10-29T11:26:30;17.08;;;3.70;;
75165;SDS011;63747;48.042;10.088;2022-10-29T11:29:44;18.88;;;5.30;;
75165;SDS011;63747;48.042;10.088;2022-10-29T11:33:06;11.90;;;3.67;;
75165;SDS011;63747;48.042;10.088;2022-10-29T11:36:20;15.60;;;3.35;;
75165;SDS011;63747;48.042;10.088;2022-10-29T11:39:27;14.80;;;3.33;;
75165;SDS011;63747;48.042;10.088;2022-10-29T11:42:32;14.13;;;4.07;;
75165;SDS011;63747;48.042;10.088;2022-10-29T11:52:46;15.13;;;4.00;;
75165;SDS011;63747;48.042;10.088;2022-10-29T11:56:11;23.02;;;6.97;;
75165;SDS011;63747;48.042;10.088;2022-10-29T12:06:20;14.73;;;3.33;;
75165;SDS011;63747;48.042;10.088;2022-10-29T12:13:04;56.50;;;21.60;;
75165;SDS011;63747;48.042;10.088;2022-10-29T12:23:20;60.58;;;8.30;;
75165;SDS011;63747;48.042;10.088;2022-10-29T12:30:02;27.25;;;5.30;;
75165;SDS011;63747;48.042;10.088;2022-10-29T12:39:47;16.83;;;3.78;;
75165;SDS011;63747;48.042;10.088;2022-10-29T12:42:54;16.33;;;3.53;;
75165;SDS011;63747;48.042;10.088;2022-10-29T12:46:02;14.35;;;3.67;;
75165;SDS011;63747;48.042;10.088;2022-10-29T12:49:22;22.98;;;3.88;;
75165;SDS011;63747;48.042;10.088;2022-10-29T12:52:29;14.32;;;3.20;;
75165;SDS011;63747;48.042;10.088;2022-10-29T12:55:40;15.88;;;4.00;;
75165;SDS011;63747;48.042;10.088;2022-10-29T13:01:49;27.48;;;5.18;;
75165;SDS011;63747;48.042;10.088;2022-10-29T13:08:10;29.40;;;4.22;;
75165;SDS011;63747;48.042;10.088;2022-10-29T13:11:21;19.00;;;3.28;;
75165;SDS011;63747;48.042;10.088;2022-10-29T13:17:34;24.50;;;4.50;;
75165;SDS011;63747;48.042;10.088;2022-10-29T13:20:39;15.95;;;3.40;;
75165;SDS011;63747;48.042;10.088;2022-10-29T13:23:42;90.43;;;10.27;;
75165;SDS011;63747;48.042;10.088;2022-10-29T13:27:49;15.65;;;3.25;;
75165;SDS011;63747;48.042;10.088;2022-10-29T13:30:34;14.55;;;3.47;;
75165;SDS011;63747;48.042;10.088;2022-10-29T13:36:40;12.50;;;3.33;;
75165;SDS011;63747;48.042;10.088;2022-10-29T13:39:41;20.25;;;3.47;;
75165;SDS011;63747;48.042;10.088;2022-10-29T13:42:42;16.88;;;3.50;;
75165;SDS011;63747;48.042;10.088;2022-10-29T13:45:45;18.65;;;3.78;;
75165;SDS011;63747;48.042;10.088;2022-10-29T13:48:52;16.10;;;3.70;;
75165;SDS011;63747;48.042;10.088;2022-10-29T13:52:03;13.50;;;3.25;;
75165;SDS011;63747;48.042;10.088;2022-10-29T13:55:13;16.58;;;3.30;;
75165;SDS011;63747;48.042;10.088;2022-10-29T13:58:35;12.32;;;3.50;;
75165;SDS011;63747;48.042;10.088;2022-10-29T14:01:47;10.63;;;3.28;;
75165;SDS011;63747;48.042;10.088;2022-10-29T14:05:06;13.05;;;3.00;;
75165;SDS011;63747;48.042;10.088;2022-10-29T14:08:15;31.20;;;6.23;;
75165;SDS011;63747;48.042;10.088;2022-10-29T14:11:24;15.95;;;3.30;;
75165;SDS011;63747;48.042;10.088;2022-10-29T14:14:39;14.55;;;2.97;;
75165;SDS011;63747;48.042;10.088;2022-10-29T14:17:54;14.50;;;3.33;;
75165;SDS011;63747;48.042;10.088;2022-10-29T14:20:57;14.43;;;3.40;;
75165;SDS011;63747;48.042;10.088;2022-10-29T14:24:02;10.18;;;3.40;;
75165;SDS011;63747;48.042;10.088;2022-10-29T14:30:23;12.88;;;3.25;;
75165;SDS011;63747;48.042;10.088;2022-10-29T14:33:31;15.35;;;3.17;;
75165;SDS011;63747;48.042;10.088;2022-10-29T14:36:43;17.60;;;3.80;;
75165;SDS011;63747;48.042;10.088;2022-10-29T14:39:52;19.90;;;3.72;;
75165;SDS011;63747;48.042;10.088;2022-10-29T14:42:57;16.48;;;3.70;;
75165;SDS011;63747;48.042;10.088;2022-10-29T14:46:11;15.25;;;3.30;;
75165;SDS011;63747;48.042;10.088;2022-10-29T14:49:19;15.52;;;4.15;;
75165;SDS011;63747;48.042;10.088;2022-10-29T14:52:30;18.38;;;4.90;;
75165;SDS011;63747;48.042;10.088;2022-10-29T14:55:37;15.15;;;3.92;;
75165;SDS011;63747;48.042;10.088;2022-10-29T14:58:44;15.40;;;3.58;;
75165;SDS011;63747;48.042;10.088;2022-10-29T15:01:47;16.08;;;4.50;;
75165;SDS011;63747;48.042;10.088;2022-10-29T15:08:24;13.88;;;3.95;;
75165;SDS011;63747;48.042;10.088;2022-10-29T15:14:46;108.80;;;13.93;;
75165;SDS011;63747;48.042;10.088;2022-10-29T15:17:56;215.30;;;24.73;;
75165;SDS011;63747;48.042;10.088;2022-10-29T15:21:02;1600.95;;;241.25;;
75165;SDS011;63747;48.042;10.088;2022-10-29T15:24:06;1442.05;;;204.98;;
75165;SDS011;63747;48.042;10.088;2022-10-29T15:27:12;842.17;;;105.70;;
75165;SDS011;63747;48.042;10.088;2022-10-29T15:30:17;448.83;;;47.97;;
75165;SDS011;63747;48.042;10.088;2022-10-29T15:33:23;159.52;;;18.50;;
75165;SDS011;63747;48.042;10.088;2022-10-29T15:36:40;223.65;;;26.83;;
75165;SDS011;63747;48.042;10.088;2022-10-29T15:42:55;171.00;;;22.45;;
75165;SDS011;63747;48.042;10.088;2022-10-29T15:46:29;184.30;;;24.42;;
75165;SDS011;63747;48.042;10.088;2022-10-29T15:49:34;184.55;;;27.92;;
75165;SDS011;63747;48.042;10.088;2022-10-29T15:52:37;99.25;;;23.83;;
75165;SDS011;63747;48.042;10.088;2022-10-29T15:55:40;65.60;;;12.50;;
75165;SDS011;63747;48.042;10.088;2022-10-29T15:58:41;31.67;;;8.55;;
75165;SDS011;63747;48.042;10.088;2022-10-29T16:01:42;47.53;;;10.05;;
75165;SDS011;63747;48.042;10.088;2022-10-29T16:04:43;61.85;;;10.60;;
75165;SDS011;63747;48.042;10.088;2022-10-29T16:07:44;54.63;;;10.38;;
75165;SDS011;63747;48.042;10.088;2022-10-29T16:10:47;48.10;;;10.00;;
75165;SDS011;63747;48.042;10.088;2022-10-29T16:13:50;75.22;;;12.27;;
75165;SDS011;63747;48.042;10.088;2022-10-29T16:16:52;57.15;;;11.63;;
75165;SDS011;63747;48.042;10.088;2022-10-29T16:19:54;45.20;;;10.27;;
75165;SDS011;63747;48.042;10.088;2022-10-29T16:22:56;33.97;;;9.52;;
75165;SDS011;63747;48.042;10.088;2022-10-29T16:25:59;20.52;;;6.82;;
75165;SDS011;63747;48.042;10.088;2022-10-29T16:29:00;22.73;;;6.70;;
75165;SDS011;63747;48.042;10.088;2022-10-29T16:35:08;25.45;;;7.10;;
75165;SDS011;63747;48.042;10.088;2022-10-29T16:38:13;22.98;;;6.68;;
75165;SDS011;63747;48.042;10.088;2022-10-29T16:41:17;19.02;;;6.82;;
75165;SDS011;63747;48.042;10.088;2022-10-29T16:44:20;19.15;;;8.82;;
75165;SDS011;63747;48.042;10.088;2022-10-29T16:47:22;16.80;;;9.13;;
75165;SDS011;63747;48.042;10.088;2022-10-29T16:50:24;18.23;;;7.10;;
75165;SDS011;63747;48.042;10.088;2022-10-29T16:53:27;26.38;;;13.90;;
75165;SDS011;63747;48.042;10.088;2022-10-29T16:59:28;31.60;;;17.57;;
75165;SDS011;63747;48.042;10.088;2022-10-29T17:02:29;24.00;;;8.80;;
75165;SDS011;63747;48.042;10.088;2022-10-29T17:08:35;22.30;;;7.03;;
75165;SDS011;63747;48.042;10.088;2022-10-29T17:11:38;20.13;;;6.82;;
75165;SDS011;63747;48.042;10.088;2022-10-29T17:14:40;23.17;;;9.75;;
75165;SDS011;63747;48.042;10.088;2022-10-29T17:21:24;18.58;;;5.95;;
75165;SDS011;63747;48.042;10.088;2022-10-29T17:24:08;24.80;;;7.15;;
75165;SDS011;63747;48.042;10.088;2022-10-29T17:27:10;22.75;;;7.72;;
75165;SDS011;63747;48.042;10.088;2022-10-29T17:30:12;19.40;;;7.47;;
75165;SDS011;63747;48.042;10.088;2022-10-29T17:36:15;29.23;;;11.18;;
75165;SDS011;63747;48.042;10.088;2022-10-29T17:39:17;19.88;;;10.30;;
75165;SDS011;63747;48.042;10.088;2022-10-29T17:42:19;26.00;;;10.65;;
75165;SDS011;63747;48.042;10.088;2022-10-29T17:48:22;22.08;;;8.90;;
75165;SDS011;63747;48.042;10.088;2022-10-29T17:51:23;17.77;;;7.43;;
75165;SDS011;63747;48.042;10.088;2022-10-29T17:54:24;25.10;;;7.93;;
75165;SDS011;63747;48.042;10.088;2022-10-29T17:57:26;19.88;;;7.95;;
75165;SDS011;63747;48.042;10.088;2022-10-29T18:00:28;23.90;;;9.45;;
75165;SDS011;63747;48.042;10.088;2022-10-29T18:03:29;29.73;;;14.93;;
75165;SDS011;63747;48.042;10.088;2022-10-29T18:06:30;34.78;;;17.05;;
75165;SDS011;63747;48.042;10.088;2022-10-29T18:09:31;28.75;;;10.82;;
75165;SDS011;63747;48.042;10.088;2022-10-29T18:12:32;19.35;;;8.70;;
75165;SDS011;63747;48.042;10.088;2022-10-29T18:15:33;20.40;;;7.63;;
75165;SDS011;63747;48.042;10.088;2022-10-29T18:18:34;17.65;;;6.20;;
75165;SDS011;63747;48.042;10.088;2022-10-29T18:21:36;14.02;;;6.22;;
75165;SDS011;63747;48.042;10.088;2022-10-29T18:24:43;14.07;;;5.65;;
75165;SDS011;63747;48.042;10.088;2022-10-29T18:30:45;16.60;;;5.75;;
75165;SDS011;63747;48.042;10.088;2022-10-29T18:33:49;12.10;;;5.13;;
75165;SDS011;63747;48.042;10.088;2022-10-29T18:36:50;16.13;;;5.60;;
75165;SDS011;63747;48.042;10.088;2022-10-29T18:39:51;16.40;;;6.97;;
75165;SDS011;63747;48.042;10.088;2022-10-29T18:42:55;17.38;;;7.70;;
75165;SDS011;63747;48.042;10.088;2022-10-29T18:45:56;16.73;;;8.13;;
75165;SDS011;63747;48.042;10.088;2022-10-29T18:49:02;18.95;;;8.18;;
75165;SDS011;63747;48.042;10.088;2022-10-29T18:52:08;21.42;;;8.10;;
75165;SDS011;63747;48.042;10.088;2022-10-29T18:55:14;21.10;;;9.77;;
75165;SDS011;63747;48.042;10.088;2022-10-29T18:58:15;22.25;;;10.50;;
75165;SDS011;63747;48.042;10.088;2022-10-29T19:01:17;18.15;;;8.75;;
75165;SDS011;63747;48.042;10.088;2022-10-29T19:04:19;19.20;;;7.32;;
75165;SDS011;63747;48.042;10.088;2022-10-29T19:07:20;16.08;;;6.60;;
75165;SDS011;63747;48.042;10.088;2022-10-29T19:10:21;16.58;;;6.75;;
75165;SDS011;63747;48.042;10.088;2022-10-29T19:13:24;19.55;;;6.53;;
75165;SDS011;63747;48.042;10.088;2022-10-29T19:16:25;13.40;;;6.10;;
75165;SDS011;63747;48.042;10.088;2022-10-29T19:19:27;15.70;;;6.45;;
75165;SDS011;63747;48.042;10.088;2022-10-29T19:22:29;20.42;;;7.32;;
75165;SDS011;63747;48.042;10.088;2022-10-29T19:25:30;14.93;;;7.47;;
75165;SDS011;63747;48.042;10.088;2022-10-29T19:28:31;19.50;;;6.68;;
75165;SDS011;63747;48.042;10.088;2022-10-29T19:34:36;18.75;;;6.15;;
75165;SDS011;63747;48.042;10.088;2022-10-29T19:37:38;14.18;;;6.15;;
75165;SDS011;63747;48.042;10.088;2022-10-29T19:40:39;15.75;;;5.90;;
75165;SDS011;63747;48.042;10.088;2022-10-29T19:43:41;16.45;;;5.97;;
75165;SDS011;63747;48.042;10.088;2022-10-29T19:46:42;14.65;;;6.13;;
75165;SDS011;63747;48.042;10.088;2022-10-29T19:49:43;13.18;;;5.68;;
75165;SDS011;63747;48.042;10.088;2022-10-29T19:52:44;16.02;;;5.55;;
75165;SDS011;63747;48.042;10.088;2022-10-29T19:58:50;15.55;;;6.70;;
75165;SDS011;63747;48.042;10.088;2022-10-29T20:01:51;18.05;;;6.90;;
75165;SDS011;63747;48.042;10.088;2022-10-29T20:04:51;20.67;;;10.57;;
75165;SDS011;63747;48.042;10.088;2022-10-29T20:07:52;24.00;;;8.77;;
75165;SDS011;63747;48.042;10.088;2022-10-29T20:10:56;17.58;;;8.20;;
75165;SDS011;63747;48.042;10.088;2022-10-29T20:13:58;18.60;;;7.03;;
75165;SDS011;63747;48.042;10.088;2022-10-29T20:16:59;19.08;;;7.25;;
75165;SDS011;63747;48.042;10.088;2022-10-29T20:19:59;15.80;;;7.43;;
75165;SDS011;63747;48.042;10.088;2022-10-29T20:23:00;18.15;;;9.07;;
75165;SDS011;63747;48.042;10.088;2022-10-29T20:26:01;20.80;;;6.50;;
75165;SDS011;63747;48.042;10.088;2022-10-29T20:29:01;13.25;;;5.68;;
75165;SDS011;63747;48.042;10.088;2022-10-29T20:32:02;17.23;;;5.40;;
75165;SDS011;63747;48.042;10.088;2022-10-29T20:35:03;15.30;;;5.45;;
75165;SDS011;63747;48.042;10.088;2022-10-29T20:38:04;14.13;;;5.57;;
75165;SDS011;63747;48.042;10.088;2022-10-29T20:41:05;14.90;;;6.30;;
75165;SDS011;63747;48.042;10.088;2022-10-29T20:44:06;18.20;;;5.53;;
75165;SDS011;63747;48.042;10.088;2022-10-29T20:47:07;19.55;;;6.22;;
75165;SDS011;63747;48.042;10.088;2022-10-29T20:50:08;17.73;;;5.90;;
75165;SDS011;63747;48.042;10.088;2022-10-29T20:53:09;11.10;;;4.75;;